Barro Duro, Brazil
Current Conditions -  °F | °C
As of 5:00 PM on Wednesday 26 Nov 2014 (Local Time) from SBTE Reporting Station
Few Clouds Few Clouds  
Wind Chill: 36°   Ceiling: Unl
Heat Index: 38°   Visibility: 6mi
Dew Point: 19°   Wind: 7mph
Humidity: 37%   Direction: 230°SW
Pressure: 29.71"   Gusts: NA
Location:  5.82°S, 42.51°W
Report Text: SBTE 262000Z 23006KT 9999 FEW030 36/19 Q1006
Loading
Personal Weather Stations






























Interactive Weather Map New forecast layout! Learn more

10-Day Weather Forecast

Advertisements
Track Severe Weather on mobile